Forecast Period: 

 6 pm 27th February 2021 to 6 am 28th February 2021 

Synopsis:

Atlantic High Pressure System is the dominant feature

Forecast:

Partly cloudy, slightly hazy and breezy; with a few showers

Weather Advisory:

Be alert; in wind-exposed areas

Winds:

NE – ENE at 30 – 45 km/h (19 –  28 mph), higher gusts

Sea Conditions:

Moderate to rough in open water; easterly swells (1.8 – 2.7 m)

Marine Advisory:

Exercise caution; for above normal sea-swells and occasional gusty winds

Upcoming Tides:
 High: 06:56 pm (27th) 06:03 am  07:43 pm
 Low:

11:54 pm

****

01:44 pm

Aviation WX

[Source: ADDS]
METAR
TVSA 041200Z 09011KT 050V140 2000 SHRA SCT014 BKN028 23/23 Q1016 TEMPO SHRA =
TVSA 041100Z 0412/0512 09014KT 9999 SCT018 SCT036 TEMPO 0412/0420 09015G25KT SHRA BKN014 BKN032
TAF
TVSA 041100Z 0412/0512 09014KT 9999 SCT018 SCT036 TEMPO 0412/0420 09015G25KT SHRA BKN014 BKN032 =
SR / SS: 10:18 / 22:13 UTC (Sunrise Sunset 2021-03-04)